createdAt,value
2022-10-31T00:00:20.712Z,11.72
2022-10-31T00:01:24.996Z,11.70
2022-10-31T00:02:29.371Z,11.70
2022-10-31T00:03:33.607Z,11.70
2022-10-31T00:04:37.928Z,11.70
2022-10-31T00:05:42.168Z,11.70
2022-10-31T00:06:46.515Z,11.67
2022-10-31T00:07:50.927Z,11.63
2022-10-31T00:08:55.270Z,11.59
2022-10-31T00:09:59.526Z,11.54
2022-10-31T00:11:03.799Z,11.47
2022-10-31T00:12:08.082Z,11.42
2022-10-31T00:13:12.470Z,11.37
2022-10-31T00:14:16.676Z,11.33
2022-10-31T00:15:20.977Z,11.29
2022-10-31T00:16:25.320Z,11.27
2022-10-31T00:17:29.611Z,11.25
2022-10-31T00:18:33.934Z,11.24
2022-10-31T00:19:38.240Z,11.24
2022-10-31T00:20:42.664Z,11.22
2022-10-31T00:21:46.890Z,11.22
2022-10-31T00:22:51.177Z,11.22
2022-10-31T00:23:55.468Z,11.22
2022-10-31T00:24:59.774Z,11.24
2022-10-31T00:26:04.124Z,11.26
2022-10-31T00:27:08.333Z,11.29
2022-10-31T00:28:12.799Z,11.32
2022-10-31T00:29:17.010Z,11.35
2022-10-31T00:30:21.274Z,11.37
2022-10-31T00:31:25.578Z,11.39
2022-10-31T00:32:29.925Z,11.38
2022-10-31T00:33:34.226Z,11.36
2022-10-31T00:34:38.560Z,11.33
2022-10-31T00:35:42.787Z,11.29
2022-10-31T00:36:47.150Z,11.26
2022-10-31T00:37:51.434Z,11.22
2022-10-31T00:38:55.698Z,11.18
2022-10-31T00:40:00.083Z,11.14
2022-10-31T00:41:04.452Z,11.10
2022-10-31T00:42:08.806Z,11.07
2022-10-31T00:43:13.155Z,11.04
2022-10-31T00:44:17.405Z,11.01
2022-10-31T00:45:21.710Z,10.97
2022-10-31T00:46:26.109Z,10.92
2022-10-31T00:47:30.447Z,10.87
2022-10-31T00:48:34.802Z,10.83
2022-10-31T00:49:39.036Z,10.81
2022-10-31T00:50:43.311Z,10.81
2022-10-31T00:51:47.627Z,10.82
2022-10-31T00:52:51.915Z,10.84
2022-10-31T00:53:56.132Z,10.86
2022-10-31T00:55:00.525Z,10.89
2022-10-31T00:56:04.740Z,10.92
2022-10-31T00:57:08.987Z,10.95
2022-10-31T00:59:17.619Z,10.98
2022-10-31T01:00:21.915Z,10.99
2022-10-31T01:01:26.358Z,11.00
2022-10-31T01:02:30.655Z,11.01
2022-10-31T01:03:37.898Z,11.01
2022-10-31T01:04:41.279Z,11.01
2022-10-31T01:05:45.495Z,11.00
2022-10-31T01:06:49.918Z,10.99
2022-10-31T01:07:54.271Z,10.97
2022-10-31T01:08:58.550Z,10.96
2022-10-31T01:10:02.919Z,10.96
2022-10-31T01:11:07.222Z,10.97
2022-10-31T01:12:11.454Z,10.98
2022-10-31T01:13:15.889Z,11.01
2022-10-31T01:14:20.061Z,11.04
2022-10-31T01:15:24.264Z,11.06
2022-10-31T01:16:28.502Z,11.09
2022-10-31T01:17:32.980Z,11.11
2022-10-31T01:18:37.110Z,11.13
2022-10-31T01:19:41.355Z,11.15
2022-10-31T01:20:45.727Z,11.18
2022-10-31T01:21:49.988Z,11.19
2022-10-31T01:22:54.265Z,11.21
2022-10-31T01:23:58.558Z,11.23
2022-10-31T01:25:02.962Z,11.24
2022-10-31T01:26:07.250Z,11.26
2022-10-31T01:27:11.526Z,11.27
2022-10-31T01:28:15.871Z,11.29
2022-10-31T01:29:20.127Z,11.30
2022-10-31T01:30:24.357Z,11.30
2022-10-31T01:31:28.684Z,11.31
2022-10-31T01:32:33.050Z,11.32
2022-10-31T01:33:37.350Z,11.33
2022-10-31T01:34:41.622Z,11.34
2022-10-31T01:35:46.034Z,11.35
2022-10-31T01:36:50.139Z,11.36
2022-10-31T01:37:54.631Z,11.37
2022-10-31T01:38:58.888Z,11.39
2022-10-31T01:40:03.211Z,11.40
2022-10-31T01:41:07.492Z,11.41
2022-10-31T01:42:11.792Z,11.42
2022-10-31T01:43:16.205Z,11.42
2022-10-31T01:44:20.403Z,11.41
2022-10-31T01:45:24.697Z,11.42
2022-10-31T01:46:29.002Z,11.42
2022-10-31T01:47:33.278Z,11.41
2022-10-31T01:48:37.632Z,11.40
2022-10-31T01:49:41.914Z,11.38
2022-10-31T01:50:46.295Z,11.35
2022-10-31T01:51:50.547Z,11.33
2022-10-31T01:52:54.779Z,11.32
2022-10-31T01:53:59.096Z,11.32
2022-10-31T01:55:03.300Z,11.32
2022-10-31T01:56:07.627Z,11.32
2022-10-31T01:57:11.991Z,11.33
2022-10-31T01:58:16.401Z,11.33
2022-10-31T01:59:20.694Z,11.34
2022-10-31T02:00:25.053Z,11.36
2022-10-31T02:01:29.428Z,11.37
2022-10-31T02:02:33.754Z,11.38
2022-10-31T02:03:37.864Z,11.38
2022-10-31T02:04:42.180Z,11.39
2022-10-31T02:05:46.628Z,11.40
2022-10-31T02:06:50.855Z,11.40
2022-10-31T02:07:55.165Z,11.41
2022-10-31T02:08:59.582Z,11.41
2022-10-31T02:10:03.842Z,11.40
2022-10-31T02:11:08.141Z,11.40
2022-10-31T02:12:12.464Z,11.39
2022-10-31T02:13:16.810Z,11.40
2022-10-31T02:14:21.103Z,11.40
2022-10-31T02:15:25.439Z,11.41
2022-10-31T02:16:29.851Z,11.42
2022-10-31T02:17:34.102Z,11.42
2022-10-31T02:18:38.425Z,11.41
2022-10-31T02:19:42.741Z,11.40
2022-10-31T02:20:47.079Z,11.38
2022-10-31T02:21:51.426Z,11.37
2022-10-31T02:22:55.710Z,11.37
2022-10-31T02:23:59.997Z,11.37
2022-10-31T02:25:04.416Z,11.38
2022-10-31T02:26:08.606Z,11.39
2022-10-31T02:27:12.909Z,11.40
2022-10-31T02:29:21.554Z,11.40
2022-10-31T02:30:25.881Z,11.40
2022-10-31T02:31:30.181Z,11.40
2022-10-31T02:32:34.571Z,11.39
2022-10-31T02:33:38.946Z,11.38
2022-10-31T02:34:43.219Z,11.36
2022-10-31T02:35:47.610Z,11.36
2022-10-31T02:36:51.875Z,11.36
2022-10-31T02:37:56.247Z,11.36
2022-10-31T02:39:00.509Z,11.37
2022-10-31T02:40:04.770Z,11.39
2022-10-31T02:41:09.089Z,11.40
2022-10-31T02:42:13.398Z,11.41
2022-10-31T02:43:17.675Z,11.42
2022-10-31T02:44:22.012Z,11.42
2022-10-31T02:45:26.268Z,11.42
2022-10-31T02:46:30.689Z,11.42
2022-10-31T02:47:35.047Z,11.42
2022-10-31T02:48:39.173Z,11.42
2022-10-31T02:49:43.661Z,11.43
2022-10-31T02:50:47.916Z,11.43
2022-10-31T02:51:52.329Z,11.43
2022-10-31T02:52:56.606Z,11.43
2022-10-31T02:54:00.928Z,11.43
2022-10-31T02:55:05.225Z,11.42
2022-10-31T02:56:09.630Z,11.42
2022-10-31T02:57:13.991Z,11.42
2022-10-31T02:59:22.483Z,11.42
2022-10-31T03:00:26.810Z,11.43
2022-10-31T03:01:34.254Z,11.44
2022-10-31T03:02:37.533Z,11.45
2022-10-31T03:03:41.729Z,11.45
2022-10-31T03:04:46.128Z,11.45
2022-10-31T03:05:50.400Z,11.44
2022-10-31T03:06:54.783Z,11.43
2022-10-31T03:07:59.087Z,11.43
2022-10-31T03:09:03.358Z,11.42
2022-10-31T03:10:07.612Z,11.42
2022-10-31T03:11:12.027Z,11.42
2022-10-31T03:12:16.338Z,11.41
2022-10-31T03:13:20.714Z,11.41
2022-10-31T03:14:24.968Z,11.40
2022-10-31T03:15:29.343Z,11.39
2022-10-31T03:16:33.458Z,11.38
2022-10-31T03:17:37.711Z,11.37
2022-10-31T03:18:42.032Z,11.36
2022-10-31T03:19:46.425Z,11.35
2022-10-31T03:20:50.761Z,11.33
2022-10-31T03:21:55.115Z,11.33
2022-10-31T03:22:59.273Z,11.32
2022-10-31T03:24:03.748Z,11.32
2022-10-31T03:25:08.031Z,11.30
2022-10-31T03:26:12.311Z,11.29
2022-10-31T03:27:16.592Z,11.28
2022-10-31T03:28:20.832Z,11.28
2022-10-31T03:29:25.269Z,11.27
2022-10-31T03:30:29.519Z,11.27
2022-10-31T03:31:36.893Z,11.26
2022-10-31T03:32:40.348Z,11.26
2022-10-31T03:33:44.596Z,11.26
2022-10-31T03:34:48.992Z,11.26
2022-10-31T03:35:53.268Z,11.27
2022-10-31T03:36:57.691Z,11.27
2022-10-31T03:38:06.846Z,11.27
2022-10-31T03:39:06.256Z,11.27
2022-10-31T03:40:10.497Z,11.27
2022-10-31T03:41:14.900Z,11.28
2022-10-31T03:42:19.129Z,11.28
2022-10-31T03:44:27.791Z,11.27
2022-10-31T03:45:32.008Z,11.26
2022-10-31T03:46:36.457Z,11.25
2022-10-31T03:47:40.714Z,11.24
2022-10-31T03:48:45.025Z,11.22
2022-10-31T03:49:49.326Z,11.19
2022-10-31T03:50:53.635Z,11.17
2022-10-31T03:51:57.915Z,11.14
2022-10-31T03:53:05.117Z,11.13
2022-10-31T03:54:08.408Z,11.11
2022-10-31T03:55:12.743Z,11.10
2022-10-31T03:56:16.867Z,11.08
2022-10-31T03:57:21.092Z,11.07
2022-10-31T03:58:25.453Z,11.06
2022-10-31T03:59:29.631Z,11.05
2022-10-31T04:00:33.994Z,11.04
2022-10-31T04:01:38.411Z,11.03
2022-10-31T04:02:42.691Z,11.01
2022-10-31T04:03:46.688Z,11.01
2022-10-31T04:04:51.002Z,11.01
2022-10-31T04:05:55.305Z,11.02
2022-10-31T04:06:59.504Z,11.02
2022-10-31T04:08:03.731Z,11.03
2022-10-31T04:09:08.010Z,11.03
2022-10-31T04:10:12.243Z,11.00
2022-10-31T04:11:16.465Z,10.96
2022-10-31T04:12:20.756Z,10.91
2022-10-31T04:13:24.927Z,10.86
2022-10-31T04:14:29.257Z,10.84
2022-10-31T04:15:33.453Z,10.83
2022-10-31T04:16:37.657Z,10.83
2022-10-31T04:17:41.925Z,10.84
2022-10-31T04:18:46.160Z,10.86
2022-10-31T04:19:50.412Z,10.88
2022-10-31T04:20:54.628Z,10.90
2022-10-31T04:21:58.864Z,10.91
2022-10-31T04:23:03.144Z,10.93
2022-10-31T04:24:07.367Z,10.94
2022-10-31T04:25:11.698Z,10.96
2022-10-31T04:26:15.882Z,10.97
2022-10-31T04:27:20.104Z,10.98
2022-10-31T04:28:24.359Z,10.98
2022-10-31T04:29:28.538Z,10.98
2022-10-31T04:30:32.820Z,10.97
2022-10-31T04:31:37.149Z,10.97
2022-10-31T04:32:41.354Z,10.98
2022-10-31T04:33:45.623Z,10.98
2022-10-31T04:34:49.862Z,10.99
2022-10-31T04:35:54.195Z,10.99
2022-10-31T04:36:58.425Z,11.00
2022-10-31T04:38:02.698Z,11.01
2022-10-31T04:39:06.961Z,11.01
2022-10-31T04:40:11.235Z,11.02
2022-10-31T04:41:15.492Z,11.02
2022-10-31T04:42:19.686Z,11.03
2022-10-31T04:43:23.928Z,11.04
2022-10-31T04:44:28.203Z,11.05
2022-10-31T04:45:32.523Z,11.06
2022-10-31T04:46:36.620Z,11.05
2022-10-31T04:47:40.932Z,11.04
2022-10-31T04:48:45.154Z,11.05
2022-10-31T04:49:49.404Z,11.06
2022-10-31T04:50:53.679Z,11.06
2022-10-31T04:51:57.893Z,11.05
2022-10-31T04:53:02.136Z,11.03
2022-10-31T04:54:06.394Z,11.01
2022-10-31T04:55:10.657Z,10.98
2022-10-31T04:56:14.886Z,10.95
2022-10-31T04:57:19.154Z,10.93
2022-10-31T04:58:23.389Z,10.89
2022-10-31T04:59:27.665Z,10.83
2022-10-31T05:00:31.976Z,10.79
2022-10-31T05:01:36.368Z,10.76
2022-10-31T05:02:42.152Z,10.74
2022-10-31T05:03:44.564Z,10.73
2022-10-31T05:04:48.784Z,10.72
2022-10-31T05:05:53.032Z,10.71
2022-10-31T05:06:57.280Z,10.71
2022-10-31T05:08:01.644Z,10.73
2022-10-31T05:09:05.850Z,10.74
2022-10-31T05:10:10.048Z,10.75
2022-10-31T05:11:14.219Z,10.76
2022-10-31T05:12:18.501Z,10.77
2022-10-31T05:13:22.759Z,10.78
2022-10-31T05:14:27.072Z,10.80
2022-10-31T05:15:31.350Z,10.84
2022-10-31T05:16:35.672Z,10.88
2022-10-31T05:17:39.828Z,10.92
2022-10-31T05:18:44.117Z,10.94
2022-10-31T05:19:48.387Z,10.97
2022-10-31T05:20:52.646Z,10.99
2022-10-31T05:21:56.905Z,10.99
2022-10-31T05:23:01.136Z,11.00
2022-10-31T05:24:05.405Z,11.01
2022-10-31T05:25:09.684Z,11.03
2022-10-31T05:26:13.925Z,11.05
2022-10-31T05:27:18.182Z,11.07
2022-10-31T05:28:22.513Z,11.09
2022-10-31T05:29:26.667Z,11.10
2022-10-31T05:30:30.937Z,11.10
2022-10-31T05:31:35.190Z,11.10
2022-10-31T05:32:39.427Z,11.10
2022-10-31T05:33:43.665Z,11.11
2022-10-31T05:34:47.973Z,11.13
2022-10-31T05:35:52.206Z,11.15
2022-10-31T05:36:56.544Z,11.19
2022-10-31T05:38:00.775Z,11.21
2022-10-31T05:39:05.041Z,11.22
2022-10-31T05:40:09.334Z,11.24
2022-10-31T05:41:13.560Z,11.25
2022-10-31T05:42:17.777Z,11.26
2022-10-31T05:43:22.087Z,11.27
2022-10-31T05:44:26.407Z,11.29
2022-10-31T05:45:30.600Z,11.29
2022-10-31T05:47:39.087Z,11.28
2022-10-31T05:48:43.390Z,11.28
2022-10-31T05:49:47.612Z,11.30
2022-10-31T05:50:51.886Z,11.30
2022-10-31T05:51:56.220Z,11.31
2022-10-31T05:53:00.446Z,11.33
2022-10-31T05:54:04.769Z,11.34
2022-10-31T05:55:08.963Z,11.35
2022-10-31T05:56:13.226Z,11.36
2022-10-31T05:57:17.384Z,11.37
2022-10-31T05:58:22.766Z,11.38
2022-10-31T05:59:26.596Z,11.39
2022-10-31T06:00:30.946Z,11.39
2022-10-31T06:01:35.205Z,11.38
2022-10-31T06:02:39.358Z,11.36
2022-10-31T06:03:43.769Z,11.34
2022-10-31T06:04:48.047Z,11.34
2022-10-31T06:05:55.048Z,11.33
2022-10-31T06:06:56.420Z,11.34
2022-10-31T06:08:01.077Z,11.35
2022-10-31T06:09:04.918Z,11.35
2022-10-31T06:10:09.259Z,11.35
2022-10-31T06:11:13.550Z,11.36
2022-10-31T06:12:17.765Z,11.36
2022-10-31T06:13:22.025Z,11.36
2022-10-31T06:14:26.280Z,11.37
2022-10-31T06:15:30.534Z,11.37
2022-10-31T06:16:34.867Z,11.38
2022-10-31T06:17:39.071Z,11.38
2022-10-31T06:18:43.428Z,11.38
2022-10-31T06:19:47.620Z,11.38
2022-10-31T06:20:51.942Z,11.38
2022-10-31T06:21:56.104Z,11.39
2022-10-31T06:23:00.699Z,11.40
2022-10-31T06:24:04.704Z,11.41
2022-10-31T06:25:08.916Z,11.42
2022-10-31T06:26:13.154Z,11.43
2022-10-31T06:27:17.386Z,11.44
2022-10-31T06:28:21.625Z,11.43
2022-10-31T06:29:25.916Z,11.43
2022-10-31T06:30:30.146Z,11.41
2022-10-31T06:31:34.463Z,11.40
2022-10-31T06:32:38.642Z,11.38
2022-10-31T06:33:42.983Z,11.38
2022-10-31T06:34:47.189Z,11.36
2022-10-31T06:35:51.479Z,11.35
2022-10-31T06:36:55.792Z,11.36
2022-10-31T06:38:00.496Z,11.38
2022-10-31T06:39:04.211Z,11.42
2022-10-31T06:40:08.385Z,11.45
2022-10-31T06:41:12.734Z,11.48
2022-10-31T06:42:17.043Z,11.50
2022-10-31T06:43:21.244Z,11.53
2022-10-31T06:44:25.483Z,11.56
2022-10-31T06:45:29.843Z,11.59
2022-10-31T06:46:37.099Z,11.62
2022-10-31T06:47:56.666Z,11.66
2022-10-31T06:48:44.667Z,11.70
2022-10-31T06:49:49.023Z,11.74
2022-10-31T06:50:58.594Z,11.78
2022-10-31T06:51:57.471Z,11.83
2022-10-31T06:53:01.802Z,11.87
2022-10-31T06:54:05.937Z,11.90
2022-10-31T06:55:10.295Z,11.92
2022-10-31T06:56:14.586Z,11.94
2022-10-31T06:57:18.795Z,11.96
2022-10-31T06:58:23.115Z,11.98
2022-10-31T06:59:27.397Z,12.00
2022-10-31T07:00:31.605Z,12.02
2022-10-31T07:01:36.134Z,12.03
2022-10-31T07:02:40.182Z,12.05
2022-10-31T07:03:44.433Z,12.06
2022-10-31T07:04:48.681Z,12.09
2022-10-31T07:05:52.951Z,12.12
2022-10-31T07:06:57.199Z,12.14
2022-10-31T07:08:01.757Z,12.16
2022-10-31T07:09:05.842Z,12.19
2022-10-31T07:10:10.232Z,12.21
2022-10-31T07:11:14.367Z,12.24
2022-10-31T07:12:18.687Z,12.26
2022-10-31T07:13:22.987Z,12.29
2022-10-31T07:14:27.308Z,12.30
2022-10-31T07:15:31.495Z,12.32
2022-10-31T07:16:35.833Z,12.34
2022-10-31T07:17:40.022Z,12.36
2022-10-31T07:18:44.335Z,12.38
2022-10-31T07:19:48.538Z,12.39
2022-10-31T07:20:52.885Z,12.40
2022-10-31T07:21:57.088Z,12.41
2022-10-31T07:23:01.979Z,12.43
2022-10-31T07:24:05.647Z,12.44
2022-10-31T07:25:09.897Z,12.45
2022-10-31T07:26:14.122Z,12.45
2022-10-31T07:27:18.350Z,12.47
2022-10-31T07:28:22.601Z,12.48
2022-10-31T07:29:26.868Z,12.48
2022-10-31T07:30:31.103Z,12.49
2022-10-31T07:31:35.442Z,12.51
2022-10-31T07:32:39.582Z,12.53
2022-10-31T07:33:43.999Z,12.53
2022-10-31T07:34:48.301Z,12.53
2022-10-31T07:35:52.646Z,12.55
2022-10-31T07:36:56.953Z,12.56
2022-10-31T07:38:01.589Z,12.56
2022-10-31T07:39:05.325Z,12.57
2022-10-31T07:40:09.663Z,12.58
2022-10-31T07:41:13.990Z,12.59
2022-10-31T07:42:18.226Z,12.59
2022-10-31T07:43:22.600Z,12.60
2022-10-31T07:44:26.828Z,12.61
2022-10-31T07:45:31.163Z,12.62
2022-10-31T07:46:35.385Z,12.64
2022-10-31T07:47:39.707Z,12.66
2022-10-31T07:48:44.131Z,12.67
2022-10-31T07:49:48.346Z,12.68
2022-10-31T07:50:52.627Z,12.69
2022-10-31T07:51:56.998Z,12.68
2022-10-31T07:53:01.304Z,12.69
2022-10-31T07:54:05.512Z,12.69
2022-10-31T07:55:09.733Z,12.69
2022-10-31T07:56:14.133Z,12.69
2022-10-31T07:57:21.497Z,12.70
2022-10-31T07:58:22.609Z,12.70
2022-10-31T07:59:26.892Z,12.71
2022-10-31T08:00:31.309Z,12.72
2022-10-31T08:01:35.538Z,12.72
2022-10-31T08:02:39.859Z,12.73
2022-10-31T08:03:44.093Z,12.74
2022-10-31T08:04:48.466Z,12.75
2022-10-31T08:05:52.674Z,12.76
2022-10-31T08:06:56.893Z,12.78
2022-10-31T08:08:01.517Z,12.80
2022-10-31T08:09:05.414Z,12.81
2022-10-31T08:10:09.765Z,12.82
2022-10-31T08:11:13.909Z,12.83
2022-10-31T08:12:18.197Z,12.85
2022-10-31T08:13:22.395Z,12.86
2022-10-31T08:14:26.660Z,12.88
2022-10-31T08:15:30.934Z,12.90
2022-10-31T08:16:35.259Z,12.92
2022-10-31T08:17:39.501Z,12.94
2022-10-31T08:18:43.875Z,12.95
2022-10-31T08:19:48.053Z,12.97
2022-10-31T08:20:52.311Z,12.98
2022-10-31T08:21:56.551Z,13.01
2022-10-31T08:23:00.831Z,13.02
2022-10-31T08:24:05.220Z,13.03
2022-10-31T08:25:09.446Z,13.04
2022-10-31T08:26:13.787Z,13.06
2022-10-31T08:27:18.009Z,13.08
2022-10-31T08:28:22.345Z,13.10
2022-10-31T08:29:26.648Z,13.11
2022-10-31T08:30:30.921Z,13.14
2022-10-31T08:31:38.874Z,13.17
2022-10-31T08:32:39.532Z,13.19
2022-10-31T08:33:43.771Z,13.21
2022-10-31T08:34:48.111Z,13.22
2022-10-31T08:35:52.330Z,13.24
2022-10-31T08:36:56.712Z,13.26
2022-10-31T08:38:01.249Z,13.28
2022-10-31T08:39:05.148Z,13.30
2022-10-31T08:40:09.444Z,13.32
2022-10-31T08:41:13.714Z,13.34
2022-10-31T08:42:17.962Z,13.37
2022-10-31T08:43:22.207Z,13.39
2022-10-31T08:44:26.497Z,13.41
2022-10-31T08:45:30.758Z,13.44
2022-10-31T08:46:35.122Z,13.46
2022-10-31T08:47:39.442Z,13.48
2022-10-31T08:48:43.671Z,13.50
2022-10-31T08:49:47.952Z,13.52
2022-10-31T08:50:52.298Z,13.54
2022-10-31T08:51:56.504Z,13.56
2022-10-31T08:53:05.337Z,13.57
2022-10-31T08:54:05.102Z,13.59
2022-10-31T08:55:09.392Z,13.61
2022-10-31T08:56:13.649Z,13.62
2022-10-31T08:57:18.015Z,13.62
2022-10-31T08:58:22.340Z,13.64
2022-10-31T08:59:26.638Z,13.65
2022-10-31T09:00:30.997Z,13.67
2022-10-31T09:01:35.441Z,13.68
2022-10-31T09:02:39.543Z,13.69
2022-10-31T09:03:43.823Z,13.71
2022-10-31T09:04:48.090Z,13.73
2022-10-31T09:05:52.423Z,13.75
2022-10-31T09:07:26.614Z,13.77
2022-10-31T09:08:01.519Z,13.79
2022-10-31T09:09:05.296Z,13.81
2022-10-31T09:10:09.556Z,13.83
2022-10-31T09:11:13.869Z,13.83
2022-10-31T09:12:18.116Z,13.84
2022-10-31T09:13:24.155Z,13.85
2022-10-31T09:14:26.671Z,13.86
2022-10-31T09:15:31.068Z,13.87
2022-10-31T09:16:35.397Z,13.88
2022-10-31T09:17:39.595Z,13.89
2022-10-31T09:18:43.858Z,13.90
2022-10-31T09:19:48.143Z,13.91
2022-10-31T09:20:52.511Z,13.92
2022-10-31T09:21:56.833Z,13.93
2022-10-31T09:23:01.039Z,13.94
2022-10-31T09:24:05.322Z,13.95
2022-10-31T09:25:09.687Z,13.96
2022-10-31T09:26:14.002Z,13.98
2022-10-31T09:27:18.469Z,13.99
2022-10-31T09:28:22.677Z,14.00
2022-10-31T09:29:26.977Z,14.00
2022-10-31T09:30:31.240Z,14.00
2022-10-31T09:31:36.989Z,14.00
2022-10-31T09:32:39.934Z,14.01
2022-10-31T09:33:44.265Z,14.02
2022-10-31T09:34:48.480Z,14.02
2022-10-31T09:35:52.735Z,14.03
2022-10-31T09:36:57.028Z,14.04
2022-10-31T09:38:01.704Z,14.05
2022-10-31T09:39:05.533Z,14.06
2022-10-31T09:40:09.880Z,14.06
2022-10-31T09:41:15.410Z,14.07
2022-10-31T09:42:18.498Z,14.07
2022-10-31T09:43:22.711Z,14.08
2022-10-31T09:44:27.110Z,14.09
2022-10-31T09:45:31.357Z,14.10
2022-10-31T09:46:35.727Z,14.11
2022-10-31T09:47:40.014Z,14.12
2022-10-31T09:48:44.318Z,14.12
2022-10-31T09:49:48.621Z,14.13
2022-10-31T09:50:52.906Z,14.13
2022-10-31T09:51:57.235Z,14.13
2022-10-31T09:53:01.734Z,14.14
2022-10-31T09:54:05.782Z,14.14
2022-10-31T09:55:09.982Z,14.15
2022-10-31T09:56:14.383Z,14.17
2022-10-31T09:57:18.721Z,14.18
2022-10-31T09:58:23.051Z,14.19
2022-10-31T09:59:27.267Z,14.19
2022-10-31T10:00:31.629Z,14.20
2022-10-31T10:01:36.111Z,14.21
2022-10-31T10:02:40.199Z,14.22
2022-10-31T10:03:44.481Z,14.23
2022-10-31T10:04:48.792Z,14.22
2022-10-31T10:05:52.990Z,14.23
2022-10-31T10:06:57.395Z,14.24
2022-10-31T10:08:01.642Z,14.25
2022-10-31T10:09:05.909Z,14.26
2022-10-31T10:10:10.295Z,14.27
2022-10-31T10:11:14.556Z,14.29
2022-10-31T10:12:18.768Z,14.29
2022-10-31T10:13:23.148Z,14.31
2022-10-31T10:14:27.396Z,14.31
2022-10-31T10:15:31.745Z,14.33
2022-10-31T10:16:35.986Z,14.34
2022-10-31T10:17:40.224Z,14.36
2022-10-31T10:18:44.559Z,14.37
2022-10-31T10:19:48.780Z,14.38
2022-10-31T10:20:53.029Z,14.39
2022-10-31T10:21:57.259Z,14.39
2022-10-31T10:23:01.892Z,14.40
2022-10-31T10:24:06.041Z,14.41
2022-10-31T10:25:11.716Z,14.43
2022-10-31T10:27:43.503Z,14.45
2022-10-31T10:28:47.745Z,14.47
2022-10-31T10:29:51.906Z,14.48
2022-10-31T10:30:56.248Z,14.49
2022-10-31T10:32:00.542Z,14.51
2022-10-31T10:33:04.863Z,14.52
2022-10-31T10:34:09.186Z,14.53
2022-10-31T10:35:13.437Z,14.53
2022-10-31T10:36:17.809Z,14.54
2022-10-31T10:37:22.119Z,14.55
2022-10-31T10:38:26.348Z,14.56
2022-10-31T10:39:30.745Z,14.57
2022-10-31T10:40:34.953Z,14.58
2022-10-31T10:41:39.250Z,14.59
2022-10-31T10:42:43.676Z,14.61
2022-10-31T10:43:48.029Z,14.62
2022-10-31T10:44:52.342Z,14.64
2022-10-31T10:45:56.579Z,14.65
2022-10-31T10:47:00.872Z,14.66
2022-10-31T10:48:05.241Z,14.67
2022-10-31T10:49:09.619Z,14.69
2022-10-31T10:50:13.971Z,14.69
2022-10-31T10:51:31.915Z,14.70
2022-10-31T10:53:26.810Z,14.71
2022-10-31T10:54:31.215Z,14.71
2022-10-31T10:55:35.481Z,14.72
2022-10-31T10:56:39.864Z,14.73
2022-10-31T10:57:44.191Z,14.73
2022-10-31T10:58:48.537Z,14.74
2022-10-31T10:59:52.801Z,14.75
2022-10-31T11:00:57.296Z,14.77
2022-10-31T11:02:01.466Z,14.78
2022-10-31T11:03:06.420Z,14.79
2022-10-31T11:04:10.135Z,14.81
2022-10-31T11:05:14.474Z,14.82
2022-10-31T11:06:18.796Z,14.84
2022-10-31T11:07:23.023Z,14.85
2022-10-31T11:08:27.890Z,14.87
2022-10-31T11:09:31.646Z,14.88
2022-10-31T11:10:36.047Z,14.89
2022-10-31T11:11:40.422Z,14.90
2022-10-31T11:12:44.728Z,14.92
2022-10-31T11:13:49.075Z,14.93
2022-10-31T11:14:53.398Z,14.95
2022-10-31T11:15:57.717Z,14.97
2022-10-31T11:17:02.090Z,14.99
2022-10-31T11:18:06.447Z,15.02
2022-10-31T11:19:10.663Z,15.03
2022-10-31T11:20:18.132Z,15.05
2022-10-31T11:21:19.252Z,15.07
2022-10-31T11:22:23.546Z,15.08
2022-10-31T11:23:27.907Z,15.10
2022-10-31T11:24:32.214Z,15.10
2022-10-31T11:25:36.492Z,15.12
2022-10-31T11:26:40.874Z,15.13
2022-10-31T11:27:45.144Z,15.14
2022-10-31T11:28:49.465Z,15.16
2022-10-31T11:29:59.716Z,15.17
2022-10-31T11:30:58.176Z,15.19
2022-10-31T11:32:02.500Z,15.21
2022-10-31T11:33:06.746Z,15.24
2022-10-31T11:34:11.138Z,15.26
2022-10-31T11:35:15.374Z,15.29
2022-10-31T11:36:19.649Z,15.31
2022-10-31T11:37:24.038Z,15.34
2022-10-31T11:38:28.280Z,15.36
2022-10-31T11:39:32.568Z,15.38
2022-10-31T11:40:36.863Z,15.39
2022-10-31T11:41:41.127Z,15.40
2022-10-31T11:42:45.406Z,15.40
2022-10-31T11:43:49.831Z,15.41
2022-10-31T11:44:54.053Z,15.41
2022-10-31T11:45:58.428Z,15.41
2022-10-31T11:47:02.667Z,15.41
2022-10-31T11:48:07.510Z,15.42
2022-10-31T11:49:11.349Z,15.43
2022-10-31T11:50:15.777Z,15.44
2022-10-31T11:51:19.902Z,15.45
2022-10-31T11:52:24.192Z,15.46
2022-10-31T11:53:28.564Z,15.47
2022-10-31T11:54:32.805Z,15.48
2022-10-31T11:55:37.080Z,15.47
2022-10-31T11:56:41.473Z,15.48
2022-10-31T11:57:45.811Z,15.49
2022-10-31T11:58:50.035Z,15.50
2022-10-31T11:59:54.446Z,15.50
2022-10-31T12:00:58.798Z,15.51
2022-10-31T12:02:03.204Z,15.51
2022-10-31T12:03:07.405Z,15.52
2022-10-31T12:04:11.670Z,15.53
2022-10-31T12:05:16.045Z,15.53
2022-10-31T12:06:20.376Z,15.54
2022-10-31T12:07:24.685Z,15.54
2022-10-31T12:08:28.970Z,15.54
2022-10-31T12:09:33.424Z,15.54
2022-10-31T12:10:37.763Z,15.55
2022-10-31T12:11:42.123Z,15.55
2022-10-31T12:12:46.400Z,15.55
2022-10-31T12:13:50.740Z,15.55
2022-10-31T12:14:54.985Z,15.55
2022-10-31T12:15:59.352Z,15.55
2022-10-31T12:17:03.638Z,15.54
2022-10-31T12:18:07.966Z,15.54
2022-10-31T12:19:12.278Z,15.54
2022-10-31T12:20:16.681Z,15.54
2022-10-31T12:21:20.911Z,15.54
2022-10-31T12:22:25.264Z,15.55
2022-10-31T12:23:29.581Z,15.57
2022-10-31T12:24:33.967Z,15.58
2022-10-31T12:25:38.179Z,15.58
2022-10-31T12:26:42.594Z,15.59
2022-10-31T12:27:46.902Z,15.59
2022-10-31T12:28:55.159Z,15.59
2022-10-31T12:29:55.501Z,15.59
2022-10-31T12:30:59.751Z,15.58
2022-10-31T12:32:04.189Z,15.58
2022-10-31T12:33:08.450Z,15.57
2022-10-31T12:34:12.767Z,15.57
2022-10-31T12:35:17.018Z,15.57
2022-10-31T12:36:21.393Z,15.58
2022-10-31T12:37:25.725Z,15.57
2022-10-31T12:38:30.072Z,15.57
2022-10-31T12:39:34.420Z,15.58
2022-10-31T12:40:38.648Z,15.58
2022-10-31T12:41:42.933Z,15.58
2022-10-31T12:42:47.340Z,15.58
2022-10-31T12:43:51.582Z,15.58
2022-10-31T12:44:55.996Z,15.58
2022-10-31T12:46:00.228Z,15.57
2022-10-31T12:47:04.638Z,15.56
2022-10-31T12:48:08.952Z,15.55
2022-10-31T12:49:13.226Z,15.54
2022-10-31T12:50:17.611Z,15.53
2022-10-31T12:51:22.004Z,15.52
2022-10-31T12:52:26.257Z,15.52
2022-10-31T12:53:30.614Z,15.51
2022-10-31T12:54:34.993Z,15.50
2022-10-31T12:55:39.309Z,15.49
2022-10-31T12:56:43.530Z,15.47
2022-10-31T12:57:47.902Z,15.46
2022-10-31T12:58:52.252Z,15.46
2022-10-31T12:59:56.460Z,15.46
2022-10-31T13:01:00.840Z,15.46
2022-10-31T13:02:05.322Z,15.46
2022-10-31T13:03:09.375Z,15.45
2022-10-31T13:04:13.755Z,15.45
2022-10-31T13:05:18.110Z,15.45
2022-10-31T13:06:22.436Z,15.46
2022-10-31T13:07:26.650Z,15.46
2022-10-31T13:08:34.006Z,15.47
2022-10-31T13:09:37.458Z,15.47
2022-10-31T13:10:41.783Z,15.46
2022-10-31T13:11:46.048Z,15.47
2022-10-31T13:12:50.417Z,15.47
2022-10-31T13:13:54.777Z,15.46
2022-10-31T13:14:59.041Z,15.45
2022-10-31T13:16:03.467Z,15.45
2022-10-31T13:17:07.848Z,15.46
2022-10-31T13:18:12.228Z,15.46
2022-10-31T13:19:16.557Z,15.45
2022-10-31T13:20:20.803Z,15.44
2022-10-31T13:21:25.098Z,15.43
2022-10-31T13:22:29.520Z,15.43
2022-10-31T13:23:51.336Z,15.43
2022-10-31T13:24:38.153Z,15.42
2022-10-31T13:25:42.496Z,15.42
2022-10-31T13:26:48.330Z,15.41
2022-10-31T13:27:51.167Z,15.40
2022-10-31T13:28:55.516Z,15.39
2022-10-31T13:29:59.808Z,15.38
2022-10-31T13:31:04.110Z,15.38
2022-10-31T13:32:08.461Z,15.38
2022-10-31T13:33:12.694Z,15.38
2022-10-31T13:34:17.068Z,15.39
2022-10-31T13:35:21.436Z,15.39
2022-10-31T13:36:25.783Z,15.40
2022-10-31T13:37:30.136Z,15.41
2022-10-31T13:38:34.489Z,15.42
2022-10-31T13:39:38.723Z,15.42
2022-10-31T13:40:43.118Z,15.42
2022-10-31T13:41:47.417Z,15.42
2022-10-31T13:42:51.845Z,15.42
2022-10-31T13:43:56.177Z,15.42
2022-10-31T13:45:00.536Z,15.43
2022-10-31T13:46:04.872Z,15.43
2022-10-31T13:47:09.107Z,15.42
2022-10-31T13:48:13.533Z,15.43
2022-10-31T13:49:17.777Z,15.43
2022-10-31T13:50:22.133Z,15.42
2022-10-31T13:51:26.420Z,15.41
2022-10-31T13:52:30.824Z,15.40
2022-10-31T13:53:35.042Z,15.39
2022-10-31T13:54:39.434Z,15.38
2022-10-31T13:55:43.749Z,15.38